sensor_id;sensor_type;location;lat;lon;timestamp;temperature;humidity
16970;DHT22;8601;48.718;8.992;2023-05-10T00:01:36;13.00;99.90
16970;DHT22;8601;48.718;8.992;2023-05-10T00:04:03;13.10;99.90
16970;DHT22;8601;48.718;8.992;2023-05-10T00:06:30;13.00;99.90
16970;DHT22;8601;48.718;8.992;2023-05-10T00:08:57;13.00;99.90
16970;DHT22;8601;48.718;8.992;2023-05-10T00:11:24;12.90;99.90
16970;DHT22;8601;48.718;8.992;2023-05-10T00:13:58;12.90;99.90
16970;DHT22;8601;48.718;8.992;2023-05-10T00:16:25;12.90;99.90
16970;DHT22;8601;48.718;8.992;2023-05-10T00:18:52;12.80;99.90
16970;DHT22;8601;48.718;8.992;2023-05-10T00:21:19;12.80;99.90
16970;DHT22;8601;48.718;8.992;2023-05-10T00:23:46;12.80;99.90
16970;DHT22;8601;48.718;8.992;2023-05-10T00:26:13;12.70;99.90
16970;DHT22;8601;48.718;8.992;2023-05-10T00:28:40;12.80;99.90
16970;DHT22;8601;48.718;8.992;2023-05-10T00:31:08;12.80;99.90
16970;DHT22;8601;48.718;8.992;2023-05-10T00:33:35;12.70;99.90
16970;DHT22;8601;48.718;8.992;2023-05-10T00:36:03;12.60;99.90
16970;DHT22;8601;48.718;8.992;2023-05-10T00:38:33;12.70;99.90
16970;DHT22;8601;48.718;8.992;2023-05-10T00:41:00;12.70;99.90
16970;DHT22;8601;48.718;8.992;2023-05-10T00:43:27;12.70;99.90
16970;DHT22;8601;48.718;8.992;2023-05-10T00:45:54;12.60;99.90
16970;DHT22;8601;48.718;8.992;2023-05-10T00:48:23;12.60;99.90
16970;DHT22;8601;48.718;8.992;2023-05-10T00:50:50;12.60;99.90
16970;DHT22;8601;48.718;8.992;2023-05-10T00:53:18;12.70;99.90
16970;DHT22;8601;48.718;8.992;2023-05-10T00:55:45;12.60;99.90
16970;DHT22;8601;48.718;8.992;2023-05-10T00:58:12;12.60;99.90
16970;DHT22;8601;48.718;8.992;2023-05-10T01:00:41;12.60;99.90
16970;DHT22;8601;48.718;8.992;2023-05-10T01:03:10;12.60;99.90
16970;DHT22;8601;48.718;8.992;2023-05-10T01:05:38;12.70;99.90
16970;DHT22;8601;48.718;8.992;2023-05-10T01:08:05;12.70;99.90
16970;DHT22;8601;48.718;8.992;2023-05-10T01:10:33;12.60;99.90
16970;DHT22;8601;48.718;8.992;2023-05-10T01:13:01;12.70;99.90
16970;DHT22;8601;48.718;8.992;2023-05-10T01:15:29;12.70;99.90
16970;DHT22;8601;48.718;8.992;2023-05-10T01:17:57;12.60;99.90
16970;DHT22;8601;48.718;8.992;2023-05-10T01:20:26;12.60;99.90
16970;DHT22;8601;48.718;8.992;2023-05-10T01:23:36;12.60;99.90
16970;DHT22;8601;48.718;8.992;2023-05-10T01:26:30;12.60;99.90
16970;DHT22;8601;48.718;8.992;2023-05-10T01:29:19;12.60;99.90
16970;DHT22;8601;48.718;8.992;2023-05-10T01:32:20;12.50;99.90
16970;DHT22;8601;48.718;8.992;2023-05-10T01:34:54;12.50;99.90
16970;DHT22;8601;48.718;8.992;2023-05-10T01:37:29;12.40;99.90
16970;DHT22;8601;48.718;8.992;2023-05-10T01:40:00;12.40;99.90
16970;DHT22;8601;48.718;8.992;2023-05-10T01:42:36;12.30;99.90
16970;DHT22;8601;48.718;8.992;2023-05-10T01:45:10;12.20;99.90
16970;DHT22;8601;48.718;8.992;2023-05-10T01:47:43;12.20;99.90
16970;DHT22;8601;48.718;8.992;2023-05-10T01:50:15;12.30;99.90
16970;DHT22;8601;48.718;8.992;2023-05-10T01:52:42;12.30;99.90
16970;DHT22;8601;48.718;8.992;2023-05-10T01:55:14;12.30;99.90
16970;DHT22;8601;48.718;8.992;2023-05-10T01:57:43;12.30;99.90
16970;DHT22;8601;48.718;8.992;2023-05-10T02:00:12;12.30;99.90
16970;DHT22;8601;48.718;8.992;2023-05-10T02:02:45;12.30;99.90
16970;DHT22;8601;48.718;8.992;2023-05-10T02:05:13;12.30;99.90
16970;DHT22;8601;48.718;8.992;2023-05-10T02:07:41;12.30;99.90
16970;DHT22;8601;48.718;8.992;2023-05-10T02:10:10;12.30;99.90
16970;DHT22;8601;48.718;8.992;2023-05-10T02:12:41;12.30;99.90
16970;DHT22;8601;48.718;8.992;2023-05-10T02:15:09;12.30;99.90
16970;DHT22;8601;48.718;8.992;2023-05-10T02:17:37;12.30;99.90
16970;DHT22;8601;48.718;8.992;2023-05-10T02:20:08;12.30;99.90
16970;DHT22;8601;48.718;8.992;2023-05-10T02:22:36;12.30;99.90
16970;DHT22;8601;48.718;8.992;2023-05-10T02:25:04;12.40;99.90
16970;DHT22;8601;48.718;8.992;2023-05-10T02:27:33;12.40;99.90
16970;DHT22;8601;48.718;8.992;2023-05-10T02:30:01;12.40;99.90
16970;DHT22;8601;48.718;8.992;2023-05-10T02:32:29;12.30;99.90
16970;DHT22;8601;48.718;8.992;2023-05-10T02:34:57;12.30;99.90
16970;DHT22;8601;48.718;8.992;2023-05-10T02:37:29;12.30;99.90
16970;DHT22;8601;48.718;8.992;2023-05-10T02:39:56;12.20;99.90
16970;DHT22;8601;48.718;8.992;2023-05-10T02:42:26;12.10;99.90
16970;DHT22;8601;48.718;8.992;2023-05-10T02:44:59;12.30;99.90
16970;DHT22;8601;48.718;8.992;2023-05-10T02:47:26;12.30;99.90
16970;DHT22;8601;48.718;8.992;2023-05-10T02:49:53;12.20;99.90
16970;DHT22;8601;48.718;8.992;2023-05-10T02:52:24;12.30;99.90
16970;DHT22;8601;48.718;8.992;2023-05-10T02:54:56;12.20;99.90
16970;DHT22;8601;48.718;8.992;2023-05-10T02:57:27;12.30;99.90
16970;DHT22;8601;48.718;8.992;2023-05-10T02:59:55;12.30;99.90
16970;DHT22;8601;48.718;8.992;2023-05-10T03:02:21;12.30;99.90
16970;DHT22;8601;48.718;8.992;2023-05-10T03:04:48;12.30;99.90
16970;DHT22;8601;48.718;8.992;2023-05-10T03:07:15;12.40;99.90
16970;DHT22;8601;48.718;8.992;2023-05-10T03:09:44;12.40;99.90
16970;DHT22;8601;48.718;8.992;2023-05-10T03:12:19;12.40;99.90
16970;DHT22;8601;48.718;8.992;2023-05-10T03:15:00;12.40;99.90
16970;DHT22;8601;48.718;8.992;2023-05-10T03:17:35;12.40;99.90
16970;DHT22;8601;48.718;8.992;2023-05-10T03:20:06;12.40;99.90
16970;DHT22;8601;48.718;8.992;2023-05-10T03:22:37;12.40;99.90
16970;DHT22;8601;48.718;8.992;2023-05-10T03:25:06;12.40;99.90
16970;DHT22;8601;48.718;8.992;2023-05-10T03:27:40;12.40;99.90
16970;DHT22;8601;48.718;8.992;2023-05-10T03:30:10;12.40;99.90
16970;DHT22;8601;48.718;8.992;2023-05-10T03:32:38;12.40;99.90
16970;DHT22;8601;48.718;8.992;2023-05-10T03:35:07;12.40;99.90
16970;DHT22;8601;48.718;8.992;2023-05-10T03:37:34;12.30;99.90
16970;DHT22;8601;48.718;8.992;2023-05-10T03:40:01;12.30;99.90
16970;DHT22;8601;48.718;8.992;2023-05-10T03:42:28;12.30;99.90
16970;DHT22;8601;48.718;8.992;2023-05-10T03:44:56;12.30;99.90
16970;DHT22;8601;48.718;8.992;2023-05-10T03:47:23;12.20;99.90
16970;DHT22;8601;48.718;8.992;2023-05-10T03:49:50;12.20;99.90
16970;DHT22;8601;48.718;8.992;2023-05-10T03:52:17;12.20;99.90
16970;DHT22;8601;48.718;8.992;2023-05-10T03:54:44;12.20;99.90
16970;DHT22;8601;48.718;8.992;2023-05-10T03:57:11;12.20;99.90
16970;DHT22;8601;48.718;8.992;2023-05-10T03:59:38;12.20;99.90
16970;DHT22;8601;48.718;8.992;2023-05-10T04:02:06;12.10;99.90
16970;DHT22;8601;48.718;8.992;2023-05-10T04:04:33;12.10;99.90
16970;DHT22;8601;48.718;8.992;2023-05-10T04:07:00;12.00;99.90
16970;DHT22;8601;48.718;8.992;2023-05-10T04:09:27;12.10;99.90
16970;DHT22;8601;48.718;8.992;2023-05-10T04:11:53;12.10;99.90
16970;DHT22;8601;48.718;8.992;2023-05-10T04:14:20;12.20;99.90
16970;DHT22;8601;48.718;8.992;2023-05-10T04:16:47;12.10;99.90
16970;DHT22;8601;48.718;8.992;2023-05-10T04:19:16;12.10;99.90
16970;DHT22;8601;48.718;8.992;2023-05-10T04:21:43;12.10;99.90
16970;DHT22;8601;48.718;8.992;2023-05-10T04:24:10;12.20;99.90
16970;DHT22;8601;48.718;8.992;2023-05-10T04:26:37;12.10;99.90
16970;DHT22;8601;48.718;8.992;2023-05-10T04:29:04;12.10;99.90
16970;DHT22;8601;48.718;8.992;2023-05-10T04:31:30;12.10;99.90
16970;DHT22;8601;48.718;8.992;2023-05-10T04:33:57;12.10;99.90
16970;DHT22;8601;48.718;8.992;2023-05-10T04:36:27;12.10;99.90
16970;DHT22;8601;48.718;8.992;2023-05-10T04:38:54;12.20;99.90
16970;DHT22;8601;48.718;8.992;2023-05-10T04:41:21;12.10;99.90
16970;DHT22;8601;48.718;8.992;2023-05-10T04:43:47;12.20;99.90
16970;DHT22;8601;48.718;8.992;2023-05-10T04:46:15;12.20;99.90
16970;DHT22;8601;48.718;8.992;2023-05-10T04:48:42;12.30;99.90
16970;DHT22;8601;48.718;8.992;2023-05-10T04:51:10;12.30;99.90
16970;DHT22;8601;48.718;8.992;2023-05-10T04:53:39;12.30;99.90
16970;DHT22;8601;48.718;8.992;2023-05-10T04:56:06;12.30;99.90
16970;DHT22;8601;48.718;8.992;2023-05-10T04:58:33;12.20;99.90
16970;DHT22;8601;48.718;8.992;2023-05-10T05:01:05;12.30;99.90
16970;DHT22;8601;48.718;8.992;2023-05-10T05:03:32;12.30;99.90
16970;DHT22;8601;48.718;8.992;2023-05-10T05:05:59;12.30;99.90
16970;DHT22;8601;48.718;8.992;2023-05-10T05:08:26;12.30;99.90
16970;DHT22;8601;48.718;8.992;2023-05-10T05:10:54;12.30;99.90
16970;DHT22;8601;48.718;8.992;2023-05-10T05:13:21;12.30;99.90
16970;DHT22;8601;48.718;8.992;2023-05-10T05:15:48;12.30;99.90
16970;DHT22;8601;48.718;8.992;2023-05-10T05:18:15;12.30;99.90
16970;DHT22;8601;48.718;8.992;2023-05-10T05:20:41;12.30;99.90
16970;DHT22;8601;48.718;8.992;2023-05-10T05:23:08;12.30;99.90
16970;DHT22;8601;48.718;8.992;2023-05-10T05:25:35;12.40;99.90
16970;DHT22;8601;48.718;8.992;2023-05-10T05:28:05;12.40;99.90
16970;DHT22;8601;48.718;8.992;2023-05-10T05:30:32;12.40;99.90
16970;DHT22;8601;48.718;8.992;2023-05-10T05:32:58;12.40;99.90
16970;DHT22;8601;48.718;8.992;2023-05-10T05:35:25;12.40;99.90
16970;DHT22;8601;48.718;8.992;2023-05-10T05:37:52;12.30;99.90
16970;DHT22;8601;48.718;8.992;2023-05-10T05:40:19;12.40;99.90
16970;DHT22;8601;48.718;8.992;2023-05-10T05:42:46;12.50;99.90
16970;DHT22;8601;48.718;8.992;2023-05-10T05:45:15;12.50;99.90
16970;DHT22;8601;48.718;8.992;2023-05-10T05:47:42;12.60;99.90
16970;DHT22;8601;48.718;8.992;2023-05-10T05:50:09;12.60;99.90
16970;DHT22;8601;48.718;8.992;2023-05-10T05:52:36;12.60;99.90
16970;DHT22;8601;48.718;8.992;2023-05-10T05:55:04;12.60;99.90
16970;DHT22;8601;48.718;8.992;2023-05-10T05:57:31;12.50;99.90
16970;DHT22;8601;48.718;8.992;2023-05-10T05:59:58;12.60;99.90
16970;DHT22;8601;48.718;8.992;2023-05-10T06:02:26;12.60;99.90
16970;DHT22;8601;48.718;8.992;2023-05-10T06:04:53;12.50;99.90
16970;DHT22;8601;48.718;8.992;2023-05-10T06:07:20;12.50;99.90
16970;DHT22;8601;48.718;8.992;2023-05-10T06:09:47;12.60;99.90
16970;DHT22;8601;48.718;8.992;2023-05-10T06:12:14;13.20;99.90
16970;DHT22;8601;48.718;8.992;2023-05-10T06:14:41;13.80;99.90
16970;DHT22;8601;48.718;8.992;2023-05-10T06:17:07;13.50;99.90
16970;DHT22;8601;48.718;8.992;2023-05-10T06:19:36;13.20;99.90
16970;DHT22;8601;48.718;8.992;2023-05-10T06:22:03;13.00;99.90
16970;DHT22;8601;48.718;8.992;2023-05-10T06:24:30;12.90;99.90
16970;DHT22;8601;48.718;8.992;2023-05-10T06:26:56;12.80;99.90
16970;DHT22;8601;48.718;8.992;2023-05-10T06:29:25;12.80;99.90
16970;DHT22;8601;48.718;8.992;2023-05-10T06:31:52;12.70;99.90
16970;DHT22;8601;48.718;8.992;2023-05-10T06:34:19;12.80;99.90
16970;DHT22;8601;48.718;8.992;2023-05-10T06:36:48;12.70;99.90
16970;DHT22;8601;48.718;8.992;2023-05-10T06:39:14;12.60;99.90
16970;DHT22;8601;48.718;8.992;2023-05-10T06:41:41;12.60;99.90
16970;DHT22;8601;48.718;8.992;2023-05-10T06:44:08;12.70;99.90
16970;DHT22;8601;48.718;8.992;2023-05-10T06:46:36;12.70;99.90
16970;DHT22;8601;48.718;8.992;2023-05-10T06:49:02;12.70;99.90
16970;DHT22;8601;48.718;8.992;2023-05-10T06:51:29;12.80;99.90
16970;DHT22;8601;48.718;8.992;2023-05-10T06:53:58;12.80;99.90
16970;DHT22;8601;48.718;8.992;2023-05-10T06:56:25;12.80;99.90
16970;DHT22;8601;48.718;8.992;2023-05-10T06:58:53;12.90;99.90
16970;DHT22;8601;48.718;8.992;2023-05-10T07:01:20;12.90;99.90
16970;DHT22;8601;48.718;8.992;2023-05-10T07:03:46;12.90;99.90
16970;DHT22;8601;48.718;8.992;2023-05-10T07:06:14;13.00;99.90
16970;DHT22;8601;48.718;8.992;2023-05-10T07:08:41;13.00;99.90
16970;DHT22;8601;48.718;8.992;2023-05-10T07:11:09;13.10;99.90
16970;DHT22;8601;48.718;8.992;2023-05-10T07:13:36;13.00;99.90
16970;DHT22;8601;48.718;8.992;2023-05-10T07:16:05;13.10;99.90
16970;DHT22;8601;48.718;8.992;2023-05-10T07:18:32;13.20;99.90
16970;DHT22;8601;48.718;8.992;2023-05-10T07:20:59;13.20;99.90
16970;DHT22;8601;48.718;8.992;2023-05-10T07:23:25;13.20;99.90
16970;DHT22;8601;48.718;8.992;2023-05-10T07:25:53;13.20;99.90
16970;DHT22;8601;48.718;8.992;2023-05-10T07:28:21;13.20;99.90
16970;DHT22;8601;48.718;8.992;2023-05-10T07:30:48;13.30;99.90
16970;DHT22;8601;48.718;8.992;2023-05-10T07:33:16;13.30;99.90
16970;DHT22;8601;48.718;8.992;2023-05-10T07:35:43;13.60;99.90
16970;DHT22;8601;48.718;8.992;2023-05-10T07:38:10;13.50;99.90
16970;DHT22;8601;48.718;8.992;2023-05-10T07:40:38;13.40;99.90
16970;DHT22;8601;48.718;8.992;2023-05-10T07:43:06;13.40;99.90
16970;DHT22;8601;48.718;8.992;2023-05-10T07:45:35;13.50;99.90
16970;DHT22;8601;48.718;8.992;2023-05-10T07:48:02;13.50;99.90
16970;DHT22;8601;48.718;8.992;2023-05-10T07:50:29;13.50;99.90
16970;DHT22;8601;48.718;8.992;2023-05-10T07:52:56;13.50;99.90
16970;DHT22;8601;48.718;8.992;2023-05-10T07:55:23;13.50;99.90
16970;DHT22;8601;48.718;8.992;2023-05-10T07:57:50;13.60;99.90
16970;DHT22;8601;48.718;8.992;2023-05-10T08:00:19;13.60;99.90
16970;DHT22;8601;48.718;8.992;2023-05-10T08:02:48;13.70;99.90
16970;DHT22;8601;48.718;8.992;2023-05-10T08:05:15;13.70;99.90
16970;DHT22;8601;48.718;8.992;2023-05-10T08:07:41;13.60;99.90
16970;DHT22;8601;48.718;8.992;2023-05-10T08:10:09;13.70;99.90
16970;DHT22;8601;48.718;8.992;2023-05-10T08:12:36;13.80;99.90
16970;DHT22;8601;48.718;8.992;2023-05-10T08:15:04;13.80;99.90
16970;DHT22;8601;48.718;8.992;2023-05-10T08:17:32;13.80;99.90
16970;DHT22;8601;48.718;8.992;2023-05-10T08:20:00;13.90;99.90
16970;DHT22;8601;48.718;8.992;2023-05-10T08:22:27;13.90;99.90
16970;DHT22;8601;48.718;8.992;2023-05-10T08:24:53;13.90;99.90
16970;DHT22;8601;48.718;8.992;2023-05-10T08:27:20;14.00;99.90
16970;DHT22;8601;48.718;8.992;2023-05-10T08:29:48;14.10;99.90
16970;DHT22;8601;48.718;8.992;2023-05-10T08:32:14;14.00;99.90
16970;DHT22;8601;48.718;8.992;2023-05-10T08:34:41;14.00;99.90
16970;DHT22;8601;48.718;8.992;2023-05-10T08:37:09;14.00;99.90
16970;DHT22;8601;48.718;8.992;2023-05-10T08:39:38;13.90;99.90
16970;DHT22;8601;48.718;8.992;2023-05-10T08:42:06;13.90;99.90
16970;DHT22;8601;48.718;8.992;2023-05-10T08:44:35;13.80;99.90
16970;DHT22;8601;48.718;8.992;2023-05-10T08:47:05;13.90;99.90
16970;DHT22;8601;48.718;8.992;2023-05-10T08:49:32;14.00;99.90
16970;DHT22;8601;48.718;8.992;2023-05-10T08:52:03;13.90;99.90
16970;DHT22;8601;48.718;8.992;2023-05-10T08:54:33;13.90;99.90
16970;DHT22;8601;48.718;8.992;2023-05-10T08:57:00;14.00;99.90
16970;DHT22;8601;48.718;8.992;2023-05-10T08:59:27;14.00;99.90
16970;DHT22;8601;48.718;8.992;2023-05-10T09:01:57;13.90;99.90
16970;DHT22;8601;48.718;8.992;2023-05-10T09:04:24;13.90;99.90
16970;DHT22;8601;48.718;8.992;2023-05-10T09:06:51;13.80;99.90
16970;DHT22;8601;48.718;8.992;2023-05-10T09:09:19;13.80;99.90
16970;DHT22;8601;48.718;8.992;2023-05-10T09:11:48;13.80;99.90
16970;DHT22;8601;48.718;8.992;2023-05-10T09:14:15;13.90;99.90
16970;DHT22;8601;48.718;8.992;2023-05-10T09:16:43;14.20;99.90
16970;DHT22;8601;48.718;8.992;2023-05-10T09:19:11;14.20;99.90
16970;DHT22;8601;48.718;8.992;2023-05-10T09:21:38;14.30;99.90
16970;DHT22;8601;48.718;8.992;2023-05-10T09:24:07;14.40;99.90
16970;DHT22;8601;48.718;8.992;2023-05-10T09:26:34;14.40;99.90
16970;DHT22;8601;48.718;8.992;2023-05-10T09:29:03;14.40;99.90
16970;DHT22;8601;48.718;8.992;2023-05-10T09:31:45;14.40;99.90
16970;DHT22;8601;48.718;8.992;2023-05-10T09:34:16;14.50;99.90
16970;DHT22;8601;48.718;8.992;2023-05-10T09:36:55;14.60;99.90
16970;DHT22;8601;48.718;8.992;2023-05-10T09:39:30;14.70;99.90
16970;DHT22;8601;48.718;8.992;2023-05-10T09:41:58;14.90;99.90
16970;DHT22;8601;48.718;8.992;2023-05-10T09:44:27;14.90;99.90
16970;DHT22;8601;48.718;8.992;2023-05-10T09:46:54;14.90;99.90
16970;DHT22;8601;48.718;8.992;2023-05-10T09:49:22;15.00;99.90
16970;DHT22;8601;48.718;8.992;2023-05-10T09:52:00;15.00;99.90
16970;DHT22;8601;48.718;8.992;2023-05-10T09:54:28;15.00;99.90
16970;DHT22;8601;48.718;8.992;2023-05-10T09:56:54;15.00;99.90
16970;DHT22;8601;48.718;8.992;2023-05-10T09:59:22;15.10;99.90
16970;DHT22;8601;48.718;8.992;2023-05-10T10:01:53;15.10;99.90
16970;DHT22;8601;48.718;8.992;2023-05-10T10:04:22;15.00;99.90
16970;DHT22;8601;48.718;8.992;2023-05-10T10:06:59;15.10;99.90
16970;DHT22;8601;48.718;8.992;2023-05-10T10:09:27;15.20;99.90
16970;DHT22;8601;48.718;8.992;2023-05-10T10:11:55;15.10;99.90
16970;DHT22;8601;48.718;8.992;2023-05-10T10:14:22;15.40;99.90
16970;DHT22;8601;48.718;8.992;2023-05-10T10:16:49;15.20;99.90
16970;DHT22;8601;48.718;8.992;2023-05-10T10:19:18;15.30;99.90
16970;DHT22;8601;48.718;8.992;2023-05-10T10:21:45;15.30;99.90
16970;DHT22;8601;48.718;8.992;2023-05-10T10:24:13;15.60;99.90
16970;DHT22;8601;48.718;8.992;2023-05-10T10:26:41;15.60;99.90
16970;DHT22;8601;48.718;8.992;2023-05-10T10:29:16;15.90;99.90
16970;DHT22;8601;48.718;8.992;2023-05-10T10:31:48;16.00;99.90
16970;DHT22;8601;48.718;8.992;2023-05-10T10:34:25;16.00;99.90
16970;DHT22;8601;48.718;8.992;2023-05-10T10:36:54;16.10;99.90
16970;DHT22;8601;48.718;8.992;2023-05-10T10:39:22;16.00;99.90
16970;DHT22;8601;48.718;8.992;2023-05-10T10:41:51;15.70;99.90
16970;DHT22;8601;48.718;8.992;2023-05-10T10:44:34;15.20;99.90
16970;DHT22;8601;48.718;8.992;2023-05-10T10:47:03;14.90;99.90
16970;DHT22;8601;48.718;8.992;2023-05-10T10:49:38;14.70;99.90
16970;DHT22;8601;48.718;8.992;2023-05-10T10:52:25;14.50;99.90
16970;DHT22;8601;48.718;8.992;2023-05-10T10:54:59;14.30;99.90
16970;DHT22;8601;48.718;8.992;2023-05-10T10:57:27;14.30;99.90
16970;DHT22;8601;48.718;8.992;2023-05-10T11:03:04;13.60;99.90
16970;DHT22;8601;48.718;8.992;2023-05-10T11:05:38;13.50;99.90
16970;DHT22;8601;48.718;8.992;2023-05-10T11:08:11;13.50;99.90
16970;DHT22;8601;48.718;8.992;2023-05-10T11:10:39;13.50;99.90
16970;DHT22;8601;48.718;8.992;2023-05-10T11:13:08;13.80;99.90
16970;DHT22;8601;48.718;8.992;2023-05-10T11:15:36;13.80;99.90
16970;DHT22;8601;48.718;8.992;2023-05-10T11:18:20;13.70;99.90
16970;DHT22;8601;48.718;8.992;2023-05-10T11:20:52;14.10;99.90
16970;DHT22;8601;48.718;8.992;2023-05-10T11:23:19;14.30;99.90
16970;DHT22;8601;48.718;8.992;2023-05-10T11:25:48;14.20;99.90
16970;DHT22;8601;48.718;8.992;2023-05-10T11:28:17;14.10;99.90
16970;DHT22;8601;48.718;8.992;2023-05-10T11:30:44;14.10;99.90
16970;DHT22;8601;48.718;8.992;2023-05-10T11:33:15;13.90;99.90
16970;DHT22;8601;48.718;8.992;2023-05-10T11:35:42;13.90;99.90
16970;DHT22;8601;48.718;8.992;2023-05-10T11:38:11;13.80;99.90
16970;DHT22;8601;48.718;8.992;2023-05-10T11:40:39;13.90;99.90
16970;DHT22;8601;48.718;8.992;2023-05-10T11:43:08;14.00;99.90
16970;DHT22;8601;48.718;8.992;2023-05-10T11:45:35;13.90;99.90
16970;DHT22;8601;48.718;8.992;2023-05-10T11:48:03;14.00;99.90
16970;DHT22;8601;48.718;8.992;2023-05-10T11:50:30;14.10;99.90
16970;DHT22;8601;48.718;8.992;2023-05-10T11:52:58;14.30;99.90
16970;DHT22;8601;48.718;8.992;2023-05-10T11:55:26;14.40;99.90
16970;DHT22;8601;48.718;8.992;2023-05-10T11:57:59;14.30;99.90
16970;DHT22;8601;48.718;8.992;2023-05-10T12:00:26;14.20;99.90
16970;DHT22;8601;48.718;8.992;2023-05-10T12:02:53;14.40;99.90
16970;DHT22;8601;48.718;8.992;2023-05-10T12:05:20;14.40;99.90
16970;DHT22;8601;48.718;8.992;2023-05-10T12:07:48;14.50;99.90
16970;DHT22;8601;48.718;8.992;2023-05-10T12:10:15;14.50;99.90
16970;DHT22;8601;48.718;8.992;2023-05-10T12:12:45;14.70;99.90
16970;DHT22;8601;48.718;8.992;2023-05-10T12:15:17;14.70;99.90
16970;DHT22;8601;48.718;8.992;2023-05-10T12:17:45;14.60;99.90
16970;DHT22;8601;48.718;8.992;2023-05-10T12:20:13;14.70;99.90
16970;DHT22;8601;48.718;8.992;2023-05-10T12:22:41;14.70;99.90
16970;DHT22;8601;48.718;8.992;2023-05-10T12:25:09;14.60;99.90
16970;DHT22;8601;48.718;8.992;2023-05-10T12:27:36;14.70;99.90
16970;DHT22;8601;48.718;8.992;2023-05-10T12:30:06;14.70;99.90
16970;DHT22;8601;48.718;8.992;2023-05-10T12:32:39;14.60;99.90
16970;DHT22;8601;48.718;8.992;2023-05-10T12:35:07;14.50;99.90
16970;DHT22;8601;48.718;8.992;2023-05-10T12:37:34;14.50;99.90
16970;DHT22;8601;48.718;8.992;2023-05-10T12:40:06;14.50;99.90
16970;DHT22;8601;48.718;8.992;2023-05-10T12:42:33;14.30;99.90
16970;DHT22;8601;48.718;8.992;2023-05-10T12:45:01;14.40;99.90
16970;DHT22;8601;48.718;8.992;2023-05-10T12:47:29;14.40;99.90
16970;DHT22;8601;48.718;8.992;2023-05-10T12:49:56;14.40;99.90
16970;DHT22;8601;48.718;8.992;2023-05-10T12:52:23;14.70;99.90
16970;DHT22;8601;48.718;8.992;2023-05-10T12:54:51;14.80;99.90
16970;DHT22;8601;48.718;8.992;2023-05-10T12:57:19;15.00;99.90
16970;DHT22;8601;48.718;8.992;2023-05-10T12:59:46;14.90;99.90
16970;DHT22;8601;48.718;8.992;2023-05-10T13:02:13;15.00;99.90
16970;DHT22;8601;48.718;8.992;2023-05-10T13:04:42;15.10;99.40
16970;DHT22;8601;48.718;8.992;2023-05-10T13:07:09;15.20;99.50
16970;DHT22;8601;48.718;8.992;2023-05-10T13:09:36;15.30;99.90
16970;DHT22;8601;48.718;8.992;2023-05-10T13:12:03;15.20;97.90
16970;DHT22;8601;48.718;8.992;2023-05-10T13:14:30;15.20;99.10
16970;DHT22;8601;48.718;8.992;2023-05-10T13:16:57;15.20;99.90
16970;DHT22;8601;48.718;8.992;2023-05-10T13:19:25;15.20;99.80
16970;DHT22;8601;48.718;8.992;2023-05-10T13:21:54;15.30;98.40
16970;DHT22;8601;48.718;8.992;2023-05-10T13:24:21;15.30;98.20
16970;DHT22;8601;48.718;8.992;2023-05-10T13:26:48;15.20;98.10
16970;DHT22;8601;48.718;8.992;2023-05-10T13:29:15;15.10;97.60
16970;DHT22;8601;48.718;8.992;2023-05-10T13:31:44;15.10;99.40
16970;DHT22;8601;48.718;8.992;2023-05-10T13:34:11;15.10;97.40
16970;DHT22;8601;48.718;8.992;2023-05-10T13:36:38;15.30;99.90
16970;DHT22;8601;48.718;8.992;2023-05-10T13:39:06;15.50;98.10
16970;DHT22;8601;48.718;8.992;2023-05-10T13:41:33;15.50;96.50
16970;DHT22;8601;48.718;8.992;2023-05-10T13:44:00;15.50;95.40
16970;DHT22;8601;48.718;8.992;2023-05-10T13:46:28;15.50;96.50
16970;DHT22;8601;48.718;8.992;2023-05-10T13:48:55;15.50;93.90
16970;DHT22;8601;48.718;8.992;2023-05-10T13:51:22;15.40;93.70
16970;DHT22;8601;48.718;8.992;2023-05-10T13:53:49;15.50;94.50
16970;DHT22;8601;48.718;8.992;2023-05-10T13:56:17;15.40;94.30
16970;DHT22;8601;48.718;8.992;2023-05-10T13:58:44;15.40;94.50
16970;DHT22;8601;48.718;8.992;2023-05-10T14:01:12;15.50;94.20
16970;DHT22;8601;48.718;8.992;2023-05-10T14:03:38;15.50;94.50
16970;DHT22;8601;48.718;8.992;2023-05-10T14:06:05;15.50;94.90
16970;DHT22;8601;48.718;8.992;2023-05-10T14:08:34;15.70;97.60
16970;DHT22;8601;48.718;8.992;2023-05-10T14:11:00;15.90;93.30
16970;DHT22;8601;48.718;8.992;2023-05-10T14:13:29;15.80;92.70
16970;DHT22;8601;48.718;8.992;2023-05-10T14:15:56;15.70;92.00
16970;DHT22;8601;48.718;8.992;2023-05-10T14:18:24;15.60;92.10
16970;DHT22;8601;48.718;8.992;2023-05-10T14:20:51;15.70;92.80
16970;DHT22;8601;48.718;8.992;2023-05-10T14:23:18;15.70;92.40
16970;DHT22;8601;48.718;8.992;2023-05-10T14:25:49;15.60;91.40
16970;DHT22;8601;48.718;8.992;2023-05-10T14:28:17;15.60;93.10
16970;DHT22;8601;48.718;8.992;2023-05-10T14:30:46;15.60;92.20
16970;DHT22;8601;48.718;8.992;2023-05-10T14:33:13;15.60;91.50
16970;DHT22;8601;48.718;8.992;2023-05-10T14:35:39;15.50;91.80
16970;DHT22;8601;48.718;8.992;2023-05-10T14:38:06;15.50;90.70
16970;DHT22;8601;48.718;8.992;2023-05-10T14:40:33;15.50;92.00
16970;DHT22;8601;48.718;8.992;2023-05-10T14:43:00;15.60;93.00
16970;DHT22;8601;48.718;8.992;2023-05-10T14:45:27;15.80;93.60
16970;DHT22;8601;48.718;8.992;2023-05-10T14:47:55;15.80;93.60
16970;DHT22;8601;48.718;8.992;2023-05-10T14:50:22;15.80;94.30
16970;DHT22;8601;48.718;8.992;2023-05-10T14:52:49;15.80;93.50
16970;DHT22;8601;48.718;8.992;2023-05-10T14:55:16;15.80;92.10
16970;DHT22;8601;48.718;8.992;2023-05-10T14:57:43;15.70;92.20
16970;DHT22;8601;48.718;8.992;2023-05-10T15:00:13;15.80;93.80
16970;DHT22;8601;48.718;8.992;2023-05-10T15:02:41;15.80;93.00
16970;DHT22;8601;48.718;8.992;2023-05-10T15:05:09;15.80;94.50
16970;DHT22;8601;48.718;8.992;2023-05-10T15:07:36;15.90;94.60
16970;DHT22;8601;48.718;8.992;2023-05-10T15:10:04;15.90;94.00
16970;DHT22;8601;48.718;8.992;2023-05-10T15:12:32;15.90;94.80
16970;DHT22;8601;48.718;8.992;2023-05-10T15:14:59;15.80;91.90
16970;DHT22;8601;48.718;8.992;2023-05-10T15:17:26;15.80;92.50
16970;DHT22;8601;48.718;8.992;2023-05-10T15:19:53;15.70;93.40
16970;DHT22;8601;48.718;8.992;2023-05-10T15:22:21;16.10;97.20
16970;DHT22;8601;48.718;8.992;2023-05-10T15:24:49;15.90;90.50
16970;DHT22;8601;48.718;8.992;2023-05-10T15:27:16;15.50;90.10
16970;DHT22;8601;48.718;8.992;2023-05-10T15:29:43;15.90;91.40
16970;DHT22;8601;48.718;8.992;2023-05-10T15:32:10;15.90;92.40
16970;DHT22;8601;48.718;8.992;2023-05-10T15:34:36;15.90;92.60
16970;DHT22;8601;48.718;8.992;2023-05-10T15:37:04;15.80;92.50
16970;DHT22;8601;48.718;8.992;2023-05-10T15:39:32;15.80;92.70
16970;DHT22;8601;48.718;8.992;2023-05-10T15:41:59;15.80;94.10
16970;DHT22;8601;48.718;8.992;2023-05-10T15:44:26;15.80;92.80
16970;DHT22;8601;48.718;8.992;2023-05-10T15:46:54;15.90;95.10
16970;DHT22;8601;48.718;8.992;2023-05-10T15:49:21;15.90;94.00
16970;DHT22;8601;48.718;8.992;2023-05-10T15:51:48;15.90;92.60
16970;DHT22;8601;48.718;8.992;2023-05-10T15:54:14;15.80;91.90
16970;DHT22;8601;48.718;8.992;2023-05-10T15:56:43;15.80;91.30